createdAt,value
2022-12-04T00:01:22.159Z,95144.78
2022-12-04T00:03:53.760Z,95138.97
2022-12-04T00:06:22.240Z,95139.41
2022-12-04T00:08:51.681Z,95134.19
2022-12-04T00:11:21.060Z,95127.03
2022-12-04T00:13:49.350Z,95128.22
2022-12-04T00:16:20.459Z,95137.81
2022-12-04T00:18:48.416Z,95134.41
2022-12-04T00:21:18.288Z,95139.03
2022-12-04T00:23:47.440Z,95121.28
2022-12-04T00:26:18.028Z,95126.59
2022-12-04T00:28:46.324Z,95124.41
2022-12-04T00:31:15.895Z,95128.38
2022-12-04T00:33:45.389Z,95125.50
2022-12-04T00:36:15.028Z,95129.19
2022-12-04T00:38:44.504Z,95142.88
2022-12-04T00:41:14.271Z,95147.25
2022-12-04T00:43:42.867Z,95143.69
2022-12-04T00:46:11.354Z,95149.56
2022-12-04T00:48:39.915Z,95161.19
2022-12-04T00:51:11.626Z,95151.03
2022-12-04T00:53:39.454Z,95145.03
2022-12-04T00:56:10.056Z,95135.97
2022-12-04T00:58:38.307Z,95140.78
2022-12-04T01:01:08.464Z,95134.31
2022-12-04T01:03:36.772Z,95133.66
2022-12-04T01:06:06.461Z,95140.78
2022-12-04T01:08:35.647Z,95131.88
2022-12-04T01:11:07.844Z,95141.75
2022-12-04T01:13:35.536Z,95139.28
2022-12-04T01:16:03.638Z,95128.44
2022-12-04T01:18:31.362Z,95128.19
2022-12-04T01:20:59.392Z,95144.47
2022-12-04T01:23:27.067Z,95138.16
2022-12-04T01:25:58.977Z,95131.31
2022-12-04T01:28:27.223Z,95136.66
2022-12-04T01:31:02.984Z,95139.94
2022-12-04T01:33:31.696Z,95137.03
2022-12-04T01:36:00.688Z,95141.53
2022-12-04T01:38:29.184Z,95151.78
2022-12-04T01:40:59.487Z,95152.63
2022-12-04T01:43:28.489Z,95148.94
2022-12-04T01:45:57.793Z,95138.03
2022-12-04T01:48:30.708Z,95140.13
2022-12-04T01:51:04.027Z,95132.53
2022-12-04T01:53:32.561Z,95126.34
2022-12-04T01:56:04.142Z,95127.31
2022-12-04T01:58:37.971Z,95116.06
2022-12-04T02:01:09.345Z,95114.84
2022-12-04T02:03:38.419Z,95129.31
2022-12-04T02:06:07.623Z,95122.19
2022-12-04T02:08:36.935Z,95125.75
2022-12-04T02:11:17.820Z,95118.91
2022-12-04T02:13:58.108Z,95109.09
2022-12-04T02:16:31.715Z,95105.03
2022-12-04T02:19:09.075Z,95101.25
2022-12-04T02:21:39.657Z,95099.88
2022-12-04T02:24:23.455Z,95095.50
2022-12-04T02:26:57.932Z,95096.31
2022-12-04T02:29:37.224Z,95096.88
2022-12-04T02:32:15.188Z,95090.59
2022-12-04T02:34:47.188Z,95087.31
2022-12-04T02:37:19.614Z,95090.13
2022-12-04T02:39:53.321Z,95089.19
2022-12-04T02:42:29.222Z,95079.63
2022-12-04T02:45:02.500Z,95080.97
2022-12-04T02:47:32.331Z,95072.19
2022-12-04T02:50:02.443Z,95070.84
2022-12-04T02:52:34.504Z,95057.16
2022-12-04T02:55:08.544Z,95063.75
2022-12-04T02:57:42.523Z,95056.34
2022-12-04T03:00:12.810Z,95048.56
2022-12-04T03:02:47.403Z,95055.41
2022-12-04T03:05:19.390Z,95051.13
2022-12-04T03:07:49.539Z,95056.78
2022-12-04T03:10:20.605Z,95058.09
2022-12-04T03:12:54.995Z,95072.63
2022-12-04T03:15:30.289Z,95068.09
2022-12-04T03:18:03.036Z,95066.59
2022-12-04T03:20:33.689Z,95061.66
2022-12-04T03:23:08.706Z,95062.72
2022-12-04T03:25:43.227Z,95065.63
2022-12-04T03:28:18.517Z,95073.13
2022-12-04T03:30:53.471Z,95076.72
2022-12-04T03:33:26.244Z,95072.84
2022-12-04T03:36:00.771Z,95076.41
2022-12-04T03:38:36.768Z,95079.16
2022-12-04T03:41:09.152Z,95071.50
2022-12-04T03:43:40.572Z,95072.16
2022-12-04T03:46:15.701Z,95076.56
2022-12-04T03:48:49.066Z,95073.00
2022-12-04T03:51:21.017Z,95066.97
2022-12-04T03:53:53.411Z,95072.03
2022-12-04T03:56:24.194Z,95067.94
2022-12-04T03:58:56.739Z,95066.81
2022-12-04T04:01:31.311Z,95076.72
2022-12-04T04:04:03.099Z,95071.34
2022-12-04T04:06:34.978Z,95068.59
2022-12-04T04:09:07.752Z,95056.72
2022-12-04T04:11:41.132Z,95064.66
2022-12-04T04:14:31.551Z,95067.13
2022-12-04T04:17:22.455Z,95063.25
2022-12-04T04:20:17.194Z,95071.31
2022-12-04T04:23:05.447Z,95061.97
2022-12-04T04:25:35.845Z,95063.31
2022-12-04T04:28:03.990Z,95069.88
2022-12-04T04:30:33.813Z,95063.84
2022-12-04T04:33:12.439Z,95062.72
2022-12-04T04:35:51.615Z,95066.00
2022-12-04T04:38:26.990Z,95074.47
2022-12-04T04:40:59.713Z,95070.94
2022-12-04T04:43:34.456Z,95070.78
2022-12-04T04:46:07.178Z,95076.41
2022-12-04T04:48:42.070Z,95059.41
2022-12-04T04:51:11.235Z,95073.44
2022-12-04T04:53:44.918Z,95081.91
2022-12-04T04:56:13.306Z,95077.78
2022-12-04T04:58:41.797Z,95086.25
2022-12-04T05:01:12.020Z,95089.50
2022-12-04T05:03:42.166Z,95077.47
2022-12-04T05:06:10.165Z,95085.44
2022-12-04T05:08:38.804Z,95075.84
2022-12-04T05:11:07.051Z,95067.38
2022-12-04T05:13:34.763Z,95062.81
2022-12-04T05:16:04.783Z,95058.59
2022-12-04T05:18:34.943Z,95053.97
2022-12-04T05:21:06.442Z,95056.94
2022-12-04T05:23:34.599Z,95061.84
2022-12-04T05:26:04.090Z,95053.66
2022-12-04T05:28:32.499Z,95050.69
2022-12-04T05:31:02.415Z,95053.97
2022-12-04T05:33:31.780Z,95062.44
2022-12-04T05:36:00.068Z,95056.25
2022-12-04T05:38:29.368Z,95057.91
2022-12-04T05:40:59.060Z,95048.75
2022-12-04T05:43:27.174Z,95051.50
2022-12-04T05:45:55.223Z,95053.53
2022-12-04T05:48:22.934Z,95043.25
2022-12-04T05:50:50.535Z,95030.69
2022-12-04T05:53:18.977Z,95019.16
2022-12-04T05:55:55.326Z,95030.22
2022-12-04T05:58:22.971Z,95029.31
2022-12-04T06:00:50.822Z,95038.56
2022-12-04T06:03:18.920Z,95042.78
2022-12-04T06:05:46.871Z,95046.38
2022-12-04T06:08:15.062Z,95051.25
2022-12-04T06:10:42.895Z,95045.81
2022-12-04T06:13:12.795Z,95053.19
2022-12-04T06:15:41.581Z,95065.81
2022-12-04T06:18:09.852Z,95080.56
2022-12-04T06:20:37.537Z,95070.44
2022-12-04T06:23:05.692Z,95074.09
2022-12-04T06:25:33.323Z,95076.41
2022-12-04T06:28:01.289Z,95072.84
2022-12-04T06:30:30.810Z,95068.28
2022-12-04T06:32:58.424Z,95061.41
2022-12-04T06:35:26.107Z,95062.94
2022-12-04T06:37:53.743Z,95070.44
2022-12-04T06:40:21.984Z,95061.44
2022-12-04T06:42:49.621Z,95045.00
2022-12-04T06:45:17.965Z,95048.81
2022-12-04T06:47:46.958Z,95054.25
2022-12-04T06:50:15.891Z,95072.84
2022-12-04T06:52:43.501Z,95080.78
2022-12-04T06:55:11.168Z,95064.38
2022-12-04T06:57:38.807Z,95067.63
2022-12-04T07:00:08.083Z,95060.53
2022-12-04T07:02:35.883Z,95063.94
2022-12-04T07:05:05.692Z,95064.06
2022-12-04T07:07:33.345Z,95074.78
2022-12-04T07:10:01.343Z,95080.06
2022-12-04T07:12:29.395Z,95064.84
2022-12-04T07:14:57.452Z,95063.88
2022-12-04T07:17:25.321Z,95080.16
2022-12-04T07:19:53.579Z,95084.47
2022-12-04T07:22:22.735Z,95086.13
2022-12-04T07:24:51.432Z,95094.09
2022-12-04T07:27:19.054Z,95083.66
2022-12-04T07:29:47.017Z,95085.31
2022-12-04T07:32:14.683Z,95075.69
2022-12-04T07:34:42.321Z,95079.63
2022-12-04T07:37:10.316Z,95081.00
2022-12-04T07:39:39.722Z,95083.44
2022-12-04T07:42:07.394Z,95082.31
2022-12-04T07:44:35.741Z,95078.91
2022-12-04T07:47:03.404Z,95082.78
2022-12-04T07:49:31.168Z,95084.09
2022-12-04T07:51:58.805Z,95057.78
2022-12-04T07:54:29.594Z,95052.13
2022-12-04T07:56:58.604Z,95056.34
2022-12-04T07:59:26.250Z,95056.19
2022-12-04T08:01:53.988Z,95056.59
2022-12-04T08:04:21.993Z,95057.41
2022-12-04T08:06:49.717Z,95085.53
2022-12-04T08:09:17.775Z,95079.88
2022-12-04T08:11:45.396Z,95071.09
2022-12-04T08:14:14.916Z,95088.28
2022-12-04T08:16:47.126Z,95081.50
2022-12-04T08:19:19.493Z,95068.78
2022-12-04T08:21:47.185Z,95073.84
2022-12-04T08:24:14.811Z,95070.28
2022-12-04T08:26:42.536Z,95054.81
2022-12-04T08:29:10.192Z,95066.91
2022-12-04T08:31:39.431Z,95084.41
2022-12-04T08:34:08.640Z,95083.28
2022-12-04T08:36:36.823Z,95080.69
2022-12-04T08:39:05.069Z,95082.13
2022-12-04T08:41:33.457Z,95085.00
2022-12-04T08:44:01.076Z,95088.59
2022-12-04T08:46:30.051Z,95087.19
2022-12-04T08:48:59.360Z,95101.38
2022-12-04T08:51:29.146Z,95094.75
2022-12-04T08:53:58.496Z,95092.50
2022-12-04T08:56:28.371Z,95108.81
2022-12-04T08:58:57.440Z,95099.72
2022-12-04T09:01:26.771Z,95093.53
2022-12-04T09:03:54.582Z,95085.06
2022-12-04T09:06:24.918Z,95098.75
2022-12-04T09:08:54.221Z,95093.25
2022-12-04T09:11:23.953Z,95091.59
2022-12-04T09:13:51.952Z,95088.31
2022-12-04T09:16:23.124Z,95068.13
2022-12-04T09:18:51.932Z,95058.09
2022-12-04T09:21:22.474Z,95066.56
2022-12-04T09:23:52.433Z,95057.63
2022-12-04T09:26:23.532Z,95047.56
2022-12-04T09:28:51.902Z,95037.44
2022-12-04T09:31:21.598Z,95036.31
2022-12-04T09:33:49.577Z,95037.22
2022-12-04T09:36:17.776Z,95034.41
2022-12-04T09:38:46.923Z,95031.47
2022-12-04T09:41:34.689Z,95025.44
2022-12-04T09:44:05.221Z,95053.38
2022-12-04T09:46:37.716Z,95053.41
2022-12-04T09:49:12.682Z,95052.16
2022-12-04T09:51:42.993Z,95043.53
2022-12-04T09:54:15.287Z,95046.00
2022-12-04T09:56:49.371Z,95050.28
2022-12-04T09:59:22.114Z,95046.84
2022-12-04T10:01:52.889Z,95051.59
2022-12-04T10:04:20.627Z,95053.53
2022-12-04T10:07:02.701Z,95047.34
2022-12-04T10:09:37.552Z,95035.94
2022-12-04T10:12:19.206Z,95048.16
2022-12-04T10:15:07.106Z,95040.13
2022-12-04T10:18:01.167Z,95017.03
2022-12-04T10:20:55.264Z,95020.91
2022-12-04T10:23:30.622Z,95039.13
2022-12-04T10:25:59.816Z,95030.03
2022-12-04T10:28:34.484Z,95035.25
2022-12-04T10:31:03.850Z,95020.25
2022-12-04T10:33:39.020Z,95017.16
2022-12-04T10:36:10.229Z,95008.13
2022-12-04T10:38:43.482Z,94997.09
2022-12-04T10:41:18.841Z,94985.53
2022-12-04T10:43:50.337Z,94987.66
2022-12-04T10:46:22.508Z,94990.09
2022-12-04T10:48:54.176Z,94993.28
2022-12-04T10:51:23.851Z,95004.16
2022-12-04T10:53:53.103Z,95006.31
2022-12-04T10:56:26.231Z,95009.56
2022-12-04T10:59:00.666Z,95000.75
2022-12-04T11:01:30.122Z,95003.34
2022-12-04T11:04:02.064Z,94991.63
2022-12-04T11:06:30.707Z,94976.81
2022-12-04T11:09:00.300Z,94973.41
2022-12-04T11:11:30.835Z,94977.16
2022-12-04T11:14:07.083Z,94979.63
2022-12-04T11:16:38.960Z,94966.88
2022-12-04T11:19:23.969Z,95017.47
2022-12-04T11:21:52.545Z,95005.69
2022-12-04T11:24:23.781Z,95001.78
2022-12-04T11:26:52.969Z,94988.88
2022-12-04T11:29:32.423Z,94983.66
2022-12-04T11:32:07.203Z,94981.53
2022-12-04T11:34:39.560Z,94967.22
2022-12-04T11:37:18.084Z,94963.94
2022-12-04T11:39:47.074Z,94960.34
2022-12-04T11:42:19.436Z,94951.22
2022-12-04T11:44:54.358Z,94939.31
2022-12-04T11:47:26.348Z,94924.94
2022-12-04T11:50:05.959Z,94916.47
2022-12-04T11:52:50.446Z,94923.81
2022-12-04T11:55:28.817Z,94924.44
2022-12-04T11:58:18.100Z,94923.97
2022-12-04T12:00:56.164Z,94907.31
2022-12-04T12:03:31.040Z,94921.03
2022-12-04T12:06:19.938Z,94937.19
2022-12-04T12:09:01.345Z,94949.09
2022-12-04T12:11:35.515Z,94949.91
2022-12-04T12:14:11.034Z,94949.59
2022-12-04T12:16:56.772Z,94941.13
2022-12-04T12:19:41.342Z,94947.59
2022-12-04T12:22:21.671Z,94958.41
2022-12-04T12:25:03.036Z,94945.00
2022-12-04T12:27:43.894Z,94966.22
2022-12-04T12:30:17.559Z,94950.22
2022-12-04T12:33:11.427Z,94946.97
2022-12-04T12:35:42.922Z,94937.00
2022-12-04T12:38:16.059Z,94930.97
2022-12-04T12:40:47.319Z,94934.25
2022-12-04T12:43:22.249Z,94940.28
2022-12-04T12:45:56.360Z,94932.78
2022-12-04T12:48:31.489Z,94934.25
2022-12-04T12:51:28.372Z,94935.22
2022-12-04T12:53:56.806Z,94928.38
2022-12-04T12:56:32.554Z,94913.34
2022-12-04T12:59:04.535Z,94916.13
2022-12-04T13:01:41.041Z,94911.41
2022-12-04T13:04:17.004Z,94913.69
2022-12-04T13:06:47.779Z,94911.41
2022-12-04T13:09:25.711Z,94909.44
2022-12-04T13:11:58.155Z,94903.72
2022-12-04T13:14:26.219Z,94896.22
2022-12-04T13:16:59.807Z,94911.56
2022-12-04T13:19:32.907Z,94906.78
2022-12-04T13:22:12.205Z,94892.44
2022-12-04T13:24:56.130Z,94904.81
2022-12-04T13:27:34.885Z,94903.47
2022-12-04T13:30:11.753Z,94919.97
2022-12-04T13:33:09.567Z,94910.69
2022-12-04T13:35:57.829Z,94912.84
2022-12-04T13:38:34.776Z,94908.66
2022-12-04T13:41:05.767Z,94905.09
2022-12-04T13:43:37.139Z,94928.75
2022-12-04T13:46:08.435Z,94941.25
2022-12-04T13:48:40.949Z,94935.63
2022-12-04T13:51:36.606Z,94943.84
2022-12-04T13:54:23.081Z,94948.97
2022-12-04T13:56:52.885Z,94943.84
2022-12-04T13:59:24.568Z,94930.06
2022-12-04T14:01:55.490Z,94937.28
2022-12-04T14:04:28.585Z,94931.41
2022-12-04T14:07:00.292Z,94944.19
2022-12-04T14:09:32.230Z,94943.53
2022-12-04T14:12:03.674Z,94942.13
2022-12-04T14:14:39.977Z,94954.28
2022-12-04T14:17:19.016Z,94944.66
2022-12-04T14:19:53.659Z,94946.91
2022-12-04T14:22:39.817Z,94942.47
2022-12-04T14:25:24.447Z,94938.72
2022-12-04T14:27:54.176Z,94935.41
2022-12-04T14:30:25.576Z,94932.97
2022-12-04T14:32:57.192Z,94932.22
2022-12-04T14:35:27.803Z,94944.09
2022-12-04T14:38:00.100Z,94947.69
2022-12-04T14:40:29.876Z,94964.34
2022-12-04T14:42:57.611Z,94991.84
2022-12-04T14:45:34.672Z,94981.72
2022-12-04T14:48:19.128Z,94974.66
2022-12-04T14:50:56.971Z,94989.09
2022-12-04T14:53:36.057Z,94973.16
2022-12-04T14:56:19.512Z,94979.19
2022-12-04T14:58:47.345Z,94982.56
2022-12-04T15:01:29.748Z,94985.25
2022-12-04T15:04:00.744Z,94989.03
2022-12-04T15:06:31.964Z,94999.13
2022-12-04T15:09:16.711Z,94983.06
2022-12-04T15:12:07.982Z,94989.13
2022-12-04T15:14:43.225Z,94993.19
2022-12-04T15:17:12.825Z,95004.59
2022-12-04T15:19:41.000Z,95016.78
2022-12-04T15:22:13.409Z,95007.13
2022-12-04T15:24:42.453Z,95010.81
2022-12-04T15:27:12.367Z,95014.03
2022-12-04T15:29:48.060Z,95014.84
2022-12-04T15:32:18.755Z,95004.91
2022-12-04T15:34:48.984Z,94994.69
2022-12-04T15:37:21.635Z,94995.31
2022-12-04T15:39:52.639Z,94996.19
2022-12-04T15:42:27.702Z,94990.19
2022-12-04T15:45:00.862Z,94990.66
2022-12-04T15:47:31.274Z,94994.97
2022-12-04T15:50:09.731Z,94988.56
2022-12-04T15:52:38.312Z,94992.47
2022-12-04T15:55:10.439Z,94992.53
2022-12-04T15:57:40.808Z,94996.69
2022-12-04T16:00:25.159Z,94976.59
2022-12-04T16:02:53.033Z,94967.72
2022-12-04T16:05:31.917Z,94968.16
2022-12-04T16:08:01.526Z,94978.75
2022-12-04T16:10:33.498Z,94977.94
2022-12-04T16:13:03.111Z,94966.13
2022-12-04T16:15:37.911Z,94973.25
2022-12-04T16:18:07.079Z,94961.53
2022-12-04T16:20:36.483Z,94973.66
2022-12-04T16:23:04.976Z,94971.81
2022-12-04T16:25:34.240Z,94966.16
2022-12-04T16:28:03.294Z,94971.25
2022-12-04T16:30:34.777Z,94973.97
2022-12-04T16:33:03.599Z,94964.56
2022-12-04T16:35:31.530Z,94973.03
2022-12-04T16:37:59.796Z,94977.31
2022-12-04T16:40:27.491Z,94987.25
2022-12-04T16:42:57.206Z,94990.00
2022-12-04T16:45:28.538Z,94987.97
2022-12-04T16:47:58.611Z,94987.66
2022-12-04T16:50:27.382Z,94995.72
2022-12-04T16:52:56.365Z,94998.03
2022-12-04T16:55:31.958Z,95001.09
2022-12-04T16:58:02.737Z,94996.56
2022-12-04T17:00:30.644Z,94995.63
2022-12-04T17:02:59.815Z,95003.78
2022-12-04T17:05:29.863Z,95004.22
2022-12-04T17:07:58.003Z,94999.44
2022-12-04T17:10:25.939Z,95004.41
2022-12-04T17:12:54.915Z,95002.16
2022-12-04T17:15:24.324Z,95004.47
2022-12-04T17:17:53.293Z,95003.78
2022-12-04T17:20:22.027Z,95001.03
2022-12-04T17:22:50.452Z,94997.28
2022-12-04T17:25:18.793Z,95004.63
2022-12-04T17:27:48.070Z,95000.84
2022-12-04T17:30:17.030Z,94997.63
2022-12-04T17:32:49.115Z,95002.63
2022-12-04T17:35:17.042Z,95004.31
2022-12-04T17:37:45.769Z,95003.78
2022-12-04T17:40:15.230Z,95006.25
2022-12-04T17:42:44.181Z,95016.44
2022-12-04T17:45:14.276Z,95009.09
2022-12-04T17:47:42.295Z,95017.78
2022-12-04T17:50:12.109Z,95016.97
2022-12-04T17:52:40.105Z,95017.44
2022-12-04T17:55:09.066Z,95016.75
2022-12-04T17:57:37.083Z,95021.69
2022-12-04T18:00:05.749Z,95014.84
2022-12-04T18:02:41.628Z,95016.47
2022-12-04T18:05:11.654Z,95014.31
2022-12-04T18:07:39.650Z,95016.75
2022-12-04T18:10:08.501Z,95010.59
2022-12-04T18:12:36.532Z,95024.03
2022-12-04T18:15:05.535Z,95029.56
2022-12-04T18:17:33.227Z,95021.91
2022-12-04T18:20:05.038Z,95032.72
2022-12-04T18:22:34.498Z,95024.09
2022-12-04T18:25:02.497Z,95015.44
2022-12-04T18:27:30.151Z,95020.00
2022-12-04T18:29:58.153Z,95034.19
2022-12-04T18:32:25.950Z,95030.44
2022-12-04T18:34:54.103Z,95028.22
2022-12-04T18:37:21.731Z,95028.22
2022-12-04T18:39:52.281Z,95043.56
2022-12-04T18:42:19.923Z,95040.97
2022-12-04T18:44:48.064Z,95055.09
2022-12-04T18:47:15.741Z,95050.84
2022-12-04T18:49:43.767Z,95034.63
2022-12-04T18:52:11.415Z,95047.91
2022-12-04T18:54:39.079Z,95049.28
2022-12-04T18:57:08.193Z,95052.34
2022-12-04T18:59:37.549Z,95055.28
2022-12-04T19:02:05.295Z,95061.34
2022-12-04T19:04:34.188Z,95070.78
2022-12-04T19:07:01.831Z,95069.47
2022-12-04T19:12:19.258Z,95067.22
2022-12-04T19:14:46.926Z,95070.44
2022-12-04T19:17:15.095Z,95081.31
2022-12-04T19:19:42.867Z,95072.94
2022-12-04T19:22:10.760Z,95088.31
2022-12-04T19:24:38.490Z,95082.28
2022-12-04T19:27:11.873Z,95089.03
2022-12-04T19:29:42.419Z,95096.59
2022-12-04T19:32:12.014Z,95096.34
2022-12-04T19:34:40.077Z,95094.63
2022-12-04T19:37:07.925Z,95094.25
2022-12-04T19:39:35.646Z,95088.06
2022-12-04T19:42:03.315Z,95087.63
2022-12-04T19:47:20.385Z,95099.78
2022-12-04T19:49:48.421Z,95110.22
2022-12-04T19:52:16.730Z,95110.22
2022-12-04T19:54:44.427Z,95112.03
2022-12-04T19:57:12.800Z,95120.22
2022-12-04T19:59:45.681Z,95117.31
2022-12-04T20:02:14.362Z,95117.31
2022-12-04T20:04:44.459Z,95120.81
2022-12-04T20:07:12.334Z,95124.81
2022-12-04T20:09:40.316Z,95120.66
2022-12-04T20:12:08.634Z,95124.06
2022-12-04T20:14:36.427Z,95128.25
2022-12-04T20:17:05.131Z,95132.19
2022-12-04T20:19:33.410Z,95119.91
2022-12-04T20:22:02.591Z,95132.56
2022-12-04T20:24:30.545Z,95116.91
2022-12-04T20:26:58.710Z,95125.72
2022-12-04T20:29:26.522Z,95120.22
2022-12-04T20:31:54.459Z,95121.84
2022-12-04T20:34:22.303Z,95125.44
2022-12-04T20:36:50.799Z,95123.91
2022-12-04T20:39:21.827Z,95128.69
2022-12-04T20:41:49.486Z,95138.97
2022-12-04T20:44:19.137Z,95141.50
2022-12-04T20:46:47.723Z,95141.88
2022-12-04T20:49:21.113Z,95140.41
2022-12-04T20:51:50.936Z,95135.75
2022-12-04T20:54:22.156Z,95143.75
2022-12-04T20:56:53.498Z,95142.63
2022-12-04T20:59:23.799Z,95148.78
2022-12-04T21:01:53.041Z,95155.09
2022-12-04T21:04:21.649Z,95156.06
2022-12-04T21:06:50.736Z,95154.84
2022-12-04T21:09:23.671Z,95154.59
2022-12-04T21:11:53.634Z,95168.91
2022-12-04T21:14:40.765Z,95150.88
2022-12-04T21:17:16.826Z,95162.91
2022-12-04T21:19:45.288Z,95170.53
2022-12-04T21:22:14.197Z,95172.84
2022-12-04T21:24:44.290Z,95161.81
2022-12-04T21:27:17.404Z,95163.69
2022-12-04T21:29:47.183Z,95175.28
2022-12-04T21:32:15.000Z,95173.16
2022-12-04T21:34:42.671Z,95176.63
2022-12-04T21:37:12.244Z,95180.97
2022-12-04T21:39:39.951Z,95179.84
2022-12-04T21:42:27.677Z,95177.38
2022-12-04T21:44:55.310Z,95185.13
2022-12-04T21:47:23.115Z,95192.13
2022-12-04T21:49:50.722Z,95181.25
2022-12-04T21:52:19.015Z,95191.78
2022-12-04T21:54:50.308Z,95209.06
2022-12-04T21:57:19.746Z,95198.34
2022-12-04T21:59:47.673Z,95198.72
2022-12-04T22:02:16.965Z,95197.53
2022-12-04T22:04:44.653Z,95191.31
2022-12-04T22:07:12.824Z,95183.25
2022-12-04T22:09:40.459Z,95187.19
2022-12-04T22:12:33.060Z,95196.75
2022-12-04T22:14:57.511Z,95194.03
2022-12-04T22:17:25.491Z,95192.91
2022-12-04T22:19:53.134Z,95195.41
2022-12-04T22:22:21.034Z,95209.34
2022-12-04T22:24:48.770Z,95215.91
2022-12-04T22:27:17.307Z,95201.97
2022-12-04T22:29:52.027Z,95203.56
2022-12-04T22:32:21.269Z,95195.34
2022-12-04T22:34:49.189Z,95212.38
2022-12-04T22:37:16.851Z,95219.34
2022-12-04T22:39:44.495Z,95211.63
2022-12-04T22:42:12.761Z,95205.66
2022-12-04T22:44:40.426Z,95203.94
2022-12-04T22:47:08.414Z,95211.91
2022-12-04T22:49:37.520Z,95215.03
2022-12-04T22:52:05.516Z,95211.09
2022-12-04T22:54:33.424Z,95217.13
2022-12-04T22:57:01.115Z,95204.78
2022-12-04T22:59:28.882Z,95202.28
2022-12-04T23:01:57.395Z,95207.59
2022-12-04T23:04:25.002Z,95207.97
2022-12-04T23:06:54.115Z,95204.34
2022-12-04T23:09:21.901Z,95206.94
2022-12-04T23:11:52.296Z,95213.34
2022-12-04T23:14:20.580Z,95227.13
2022-12-04T23:16:49.878Z,95227.97
2022-12-04T23:19:19.984Z,95214.84
2022-12-04T23:21:54.994Z,95213.38
2022-12-04T23:24:26.429Z,95213.03
2022-12-04T23:26:54.165Z,95191.53
2022-12-04T23:29:52.850Z,95192.66
2022-12-04T23:32:10.569Z,95201.31
2022-12-04T23:34:38.285Z,95210.78
2022-12-04T23:37:07.049Z,95206.19
2022-12-04T23:39:36.241Z,95217.44
2022-12-04T23:42:04.951Z,95226.00
2022-12-04T23:44:32.652Z,95238.28
2022-12-04T23:47:00.675Z,95249.53
2022-12-04T23:49:29.204Z,95256.31
2022-12-04T23:51:56.833Z,95240.50
2022-12-04T23:54:24.828Z,95246.16
2022-12-04T23:56:53.805Z,95248.13
2022-12-04T23:59:22.547Z,95257.50
